Time;durP1;ratioP1;P1;durP2;ratioP2;P2;SDS_P1;SDS_P2;PMS_P1;PMS_P2;Temp;Humidity;BMP_temperature;BMP_pressure;BME280_temperature;BME280_humidity;BME280_pressure;Samples;Min_cycle;Max_cycle;Signal;HPM_P1;HPM_P2
2022/12/26 00:00:18;;;;;;;;;;;;;;;4.57;100.00;96879.94;5019538;28;19929;-66
2022/12/26 00:02:44;;;;;;;;;;;;;;;4.43;100.00;96876.63;5032133;28;19925;-64
2022/12/26 00:05:09;;;;;;;;;;;;;;;4.43;100.00;96892.06;5019446;28;20445;-66
2022/12/26 00:07:34;;;;;;;;;;;;;;;4.44;100.00;96899.09;5022633;28;19925;-66
2022/12/26 00:10:00;;;;;;;;;;;;;;;4.34;100.00;96914.59;5023340;28;19932;-66
2022/12/26 00:12:25;;;;;;;;;;;;;;;4.30;100.00;96908.19;5018612;28;20023;-66
2022/12/26 00:14:50;;;;;;;;;;;;;;;4.26;100.00;96909.97;5024517;28;20365;-66
2022/12/26 00:17:16;;;;;;;;;;;;;;;4.29;100.00;96898.47;5019796;28;20131;-65
2022/12/26 00:19:42;;;;;;;;;;;;;;;4.43;100.00;96901.03;5023328;28;19924;-65
2022/12/26 00:22:07;;;;;;;;;;;;;;;4.54;100.00;96915.06;5017442;28;19975;-66
2022/12/26 00:24:32;;;;;;;;;;;;;;;4.59;100.00;96915.69;5022750;28;20368;-64
2022/12/26 00:26:57;;;;;;;;;;;;;;;4.55;100.00;96913.91;5023067;28;19917;-65
2022/12/26 00:29:23;;;;;;;;;;;;;;;4.44;100.00;96910.75;5018590;28;20400;-65
2022/12/26 00:31:48;;;;;;;;;;;;;;;4.53;100.00;96911.53;5022661;28;19917;-66
2022/12/26 00:34:13;;;;;;;;;;;;;;;4.35;100.00;96918.88;5017636;28;19971;-65
2022/12/26 00:36:39;;;;;;;;;;;;;;;4.33;100.00;96928.47;5004428;28;19917;-66
2022/12/26 00:39:04;;;;;;;;;;;;;;;4.29;100.00;96933.72;5019254;28;20560;-64
2022/12/26 00:41:30;;;;;;;;;;;;;;;4.26;100.00;96922.72;5022852;28;19921;-66
2022/12/26 00:43:55;;;;;;;;;;;;;;;4.49;100.00;96916.00;5023041;28;20022;-66
2022/12/26 00:46:20;;;;;;;;;;;;;;;4.54;100.00;96926.69;5018805;28;19975;-66
2022/12/26 00:48:46;;;;;;;;;;;;;;;4.55;100.00;96928.25;5023707;28;20378;-67
2022/12/26 00:51:11;;;;;;;;;;;;;;;4.65;100.00;96929.06;5018288;28;19917;-67
2022/12/26 00:53:36;;;;;;;;;;;;;;;4.69;100.00;96932.72;5022558;28;19917;-66
2022/12/26 00:56:02;;;;;;;;;;;;;;;4.59;100.00;96945.50;5020246;28;19917;-65
2022/12/26 00:58:27;;;;;;;;;;;;;;;4.56;100.00;96956.22;5019546;28;19917;-66
2022/12/26 01:00:53;;;;;;;;;;;;;;;4.40;100.00;96948.56;5022038;28;19921;-66
2022/12/26 01:03:19;;;;;;;;;;;;;;;4.42;100.00;96948.25;5016564;28;20034;-66
2022/12/26 01:05:45;;;;;;;;;;;;;;;4.58;100.00;96949.34;5021994;28;19961;-66
2022/12/26 01:08:11;;;;;;;;;;;;;;;4.68;100.00;96939.25;5018048;28;20370;-65
2022/12/26 01:10:39;;;;;;;;;;;;;;;4.67;100.00;96937.69;5022641;28;19928;-66
2022/12/26 01:13:04;;;;;;;;;;;;;;;4.59;100.00;96925.72;5017813;28;19921;-64
2022/12/26 01:15:29;;;;;;;;;;;;;;;4.56;100.00;96927.16;5021763;28;20422;-66
2022/12/26 01:17:56;;;;;;;;;;;;;;;4.59;100.00;96918.38;5021766;28;19921;-66
2022/12/26 01:20:22;;;;;;;;;;;;;;;4.54;100.00;96921.25;5018060;28;21325;-67
2022/12/26 01:22:47;;;;;;;;;;;;;;;4.43;100.00;96924.63;5022260;28;19921;-66
2022/12/26 01:25:12;;;;;;;;;;;;;;;4.67;100.00;96932.25;5017342;28;19918;-66
2022/12/26 01:27:37;;;;;;;;;;;;;;;4.61;100.00;96937.06;5021848;28;19917;-66
2022/12/26 01:30:03;;;;;;;;;;;;;;;4.58;100.00;96937.69;5023414;28;19917;-65
2022/12/26 01:32:28;;;;;;;;;;;;;;;4.53;100.00;96949.50;5032386;28;19921;-66
2022/12/26 01:34:55;;;;;;;;;;;;;;;4.57;100.00;96945.03;5022456;28;19932;-66
2022/12/26 01:37:22;;;;;;;;;;;;;;;4.66;100.00;96949.63;5016119;28;19932;-66
2022/12/26 01:39:47;;;;;;;;;;;;;;;4.67;100.00;96952.03;5022084;28;20281;-67
2022/12/26 01:42:15;;;;;;;;;;;;;;;4.59;100.00;96950.94;5000432;28;19921;-66
2022/12/26 01:44:52;;;;;;;;;;;;;;;4.62;100.00;96954.91;5021731;28;20293;-66
2022/12/26 01:47:19;;;;;;;;;;;;;;;4.63;100.00;96953.00;5015578;28;19917;-67
2022/12/26 01:49:47;;;;;;;;;;;;;;;4.67;100.00;96957.47;5022123;28;19918;-66
2022/12/26 01:52:20;;;;;;;;;;;;;;;4.69;100.00;96962.56;5016673;28;20294;-66
2022/12/26 01:54:48;;;;;;;;;;;;;;;4.56;100.00;96957.00;5021406;28;20445;-67
2022/12/26 01:57:37;;;;;;;;;;;;;;;4.51;100.00;96968.00;5015281;28;20001;-67
2022/12/26 02:00:03;;;;;;;;;;;;;;;4.59;100.00;96953.66;5010718;28;19928;-65
2022/12/26 02:02:29;;;;;;;;;;;;;;;4.73;100.00;96955.38;5023436;28;20405;-67
2022/12/26 02:07:40;;;;;;;;;;;;;;;4.65;100.00;96953.50;5019598;28;19967;-65
2022/12/26 02:10:08;;;;;;;;;;;;;;;4.49;100.00;96951.25;4998877;28;19928;-66
2022/12/26 02:12:34;;;;;;;;;;;;;;;4.66;100.00;96955.06;5020890;28;20328;-65
2022/12/26 02:15:00;;;;;;;;;;;;;;;4.66;100.00;96952.34;5021402;28;20011;-65
2022/12/26 02:17:26;;;;;;;;;;;;;;;4.62;100.00;96960.34;5013106;28;19969;-65
2022/12/26 02:20:14;;;;;;;;;;;;;;;4.60;100.00;96954.44;5020934;28;19921;-66
2022/12/26 02:23:15;;;;;;;;;;;;;;;4.48;100.00;96952.38;5001642;28;19929;-66
2022/12/26 02:25:49;;;;;;;;;;;;;;;4.43;100.00;96957.97;4940098;28;20026;-66
2022/12/26 02:28:14;;;;;;;;;;;;;;;4.50;100.00;96947.44;4970807;28;20334;-66
2022/12/26 02:31:06;;;;;;;;;;;;;;;4.41;100.00;96952.06;4982762;28;19918;-65
2022/12/26 02:33:47;;;;;;;;;;;;;;;4.44;100.00;96956.06;4978730;28;19924;-65
2022/12/26 02:36:35;;;;;;;;;;;;;;;4.49;100.00;96958.63;4979737;28;20008;-67
2022/12/26 02:39:19;;;;;;;;;;;;;;;4.48;100.00;96948.88;5006452;28;19917;-67
2022/12/26 02:41:51;;;;;;;;;;;;;;;4.46;100.00;96934.84;5003701;28;19923;-67
2022/12/26 02:47:13;;;;;;;;;;;;;;;4.25;100.00;96931.97;4997151;28;19921;-68
2022/12/26 03:13:09;;;;;;;;;;;;;;;4.33;100.00;96933.88;5002266;28;19928;-68
2022/12/26 03:15:09;;;;;;;;;;;;;;;3.82;100.00;96942.47;5000402;28;20300;-69
2022/12/26 03:17:42;;;;;;;;;;;;;;;3.97;100.00;96951.25;5002966;28;19922;-69
2022/12/26 03:20:07;;;;;;;;;;;;;;;4.18;100.00;96954.16;4997572;28;19929;-70
2022/12/26 03:22:38;;;;;;;;;;;;;;;4.36;100.00;96953.03;5004430;28;19921;-70
2022/12/26 03:27:53;;;;;;;;;;;;;;;4.50;100.00;96949.34;5005360;28;19918;-70
2022/12/26 03:33:02;;;;;;;;;;;;;;;4.48;100.00;96948.88;5004444;28;19977;-70
2022/12/26 03:35:30;;;;;;;;;;;;;;;4.50;100.00;96950.16;4998991;28;19971;-70
2022/12/26 03:37:57;;;;;;;;;;;;;;;4.57;100.00;96955.06;5005291;28;19918;-71
2022/12/26 04:20:02;;;;;;;;;;;;;;;3.77;100.00;96972.44;5007004;28;20012;-71
2022/12/26 04:45:04;;;;;;;;;;;;;;;3.89;100.00;96971.81;5002709;28;19929;-70
2022/12/26 04:47:30;;;;;;;;;;;;;;;3.90;100.00;96964.47;5002228;28;19918;-71
2022/12/26 04:50:11;;;;;;;;;;;;;;;3.94;100.00;96960.00;5007939;28;19972;-71
2022/12/26 04:55:21;;;;;;;;;;;;;;;4.06;100.00;96953.97;4978739;28;20492;-70
2022/12/26 04:57:47;;;;;;;;;;;;;;;3.79;100.00;96959.34;4983523;28;20367;-71
2022/12/26 05:00:12;;;;;;;;;;;;;;;3.69;100.00;96964.28;4976362;28;20298;-72
2022/12/26 05:10:55;;;;;;;;;;;;;;;3.96;100.00;96982.16;4983017;28;19918;-70
2022/12/26 05:13:20;;;;;;;;;;;;;;;4.05;100.00;96980.28;4978040;28;20324;-69
2022/12/26 05:29:27;;;;;;;;;;;;;;;3.73;100.00;96974.19;4998637;28;19972;-70
2022/12/26 05:31:52;;;;;;;;;;;;;;;3.60;100.00;96981.31;5002275;28;19917;-67
2022/12/26 05:34:20;;;;;;;;;;;;;;;3.90;100.00;96976.09;4997052;28;20394;-67
2022/12/26 05:36:49;;;;;;;;;;;;;;;3.92;100.00;96973.09;5018156;28;19917;-68
2022/12/26 05:39:15;;;;;;;;;;;;;;;4.00;100.00;96972.31;5019831;28;19917;-65
2022/12/26 05:41:40;;;;;;;;;;;;;;;4.01;100.00;96971.97;5023353;28;19924;-65
2022/12/26 05:44:06;;;;;;;;;;;;;;;3.97;100.00;96973.72;5017287;28;19931;-66
2022/12/26 05:46:32;;;;;;;;;;;;;;;3.69;100.00;96983.22;5021003;28;20015;-67
2022/12/26 05:48:57;;;;;;;;;;;;;;;3.65;100.00;96980.34;5022466;28;19983;-67
2022/12/26 05:51:22;;;;;;;;;;;;;;;3.85;100.00;96983.59;5017951;28;19983;-67
2022/12/26 05:53:48;;;;;;;;;;;;;;;3.74;100.00;96975.75;5021722;28;20413;-66
2022/12/26 05:56:14;;;;;;;;;;;;;;;3.83;100.00;96973.88;5015959;28;19921;-65
2022/12/26 05:58:40;;;;;;;;;;;;;;;3.80;100.00;96973.72;5021985;28;19917;-66
2022/12/26 06:01:13;;;;;;;;;;;;;;;3.85;100.00;96960.00;5016718;28;19924;-65
2022/12/26 06:03:40;;;;;;;;;;;;;;;3.78;100.00;96957.78;5022709;28;19976;-68
2022/12/26 06:06:05;;;;;;;;;;;;;;;3.66;100.00;96956.78;5017635;28;20016;-65
2022/12/26 06:08:31;;;;;;;;;;;;;;;3.30;100.00;96965.91;5022292;28;20003;-68
2022/12/26 06:10:56;;;;;;;;;;;;;;;3.25;100.00;96973.06;5022523;28;19944;-67
2022/12/26 06:13:22;;;;;;;;;;;;;;;3.32;100.00;96969.91;5018230;28;20502;-68
2022/12/26 06:15:47;;;;;;;;;;;;;;;3.30;100.00;96968.63;5022544;28;19917;-68
2022/12/26 06:18:13;;;;;;;;;;;;;;;3.43;100.00;96962.28;5000719;28;20402;-67
2022/12/26 06:20:39;;;;;;;;;;;;;;;3.54;100.00;96962.81;5022340;28;20274;-68
2022/12/26 06:23:04;;;;;;;;;;;;;;;3.59;100.00;96962.66;5017040;28;20297;-67
2022/12/26 06:25:30;;;;;;;;;;;;;;;3.66;100.00;96956.78;5021089;28;19931;-67
2022/12/26 06:27:55;;;;;;;;;;;;;;;3.58;100.00;96955.63;5022357;28;19921;-68
2022/12/26 06:30:20;;;;;;;;;;;;;;;3.41;100.00;96954.47;5016798;28;19917;-65
2022/12/26 06:32:46;;;;;;;;;;;;;;;3.24;100.00;96946.28;5022161;28;19927;-68
2022/12/26 06:35:11;;;;;;;;;;;;;;;2.96;100.00;96948.41;5016450;28;19917;-66
2022/12/26 06:37:36;;;;;;;;;;;;;;;2.90;100.00;96952.34;5020735;28;20020;-67
2022/12/26 06:40:02;;;;;;;;;;;;;;;2.87;100.00;96945.66;5019103;28;19917;-67
2022/12/26 06:42:27;;;;;;;;;;;;;;;2.79;100.00;96944.50;5018113;28;19922;-67
2022/12/26 06:44:53;;;;;;;;;;;;;;;2.92;100.00;96948.22;5023014;28;19917;-67
2022/12/26 06:47:18;;;;;;;;;;;;;;;2.96;100.00;96941.09;5019564;28;19925;-66
2022/12/26 06:49:43;;;;;;;;;;;;;;;2.79;100.00;96940.97;5025777;28;19924;-68
2022/12/26 06:52:10;;;;;;;;;;;;;;;2.67;100.00;96923.44;5001772;28;20002;-67
2022/12/26 06:54:36;;;;;;;;;;;;;;;2.73;100.00;96928.72;5025083;28;19917;-67
2022/12/26 06:57:01;;;;;;;;;;;;;;;2.76;100.00;96926.19;5024693;28;20356;-67
2022/12/26 06:59:27;;;;;;;;;;;;;;;2.91;100.00;96935.00;5020118;28;20800;-66
2022/12/26 07:01:52;;;;;;;;;;;;;;;2.87;100.00;96921.31;5024596;28;19967;-67
2022/12/26 07:04:17;;;;;;;;;;;;;;;2.43;100.00;96925.66;5019421;28;19917;-67
2022/12/26 07:06:42;;;;;;;;;;;;;;;2.37;100.00;96941.19;5023974;28;20389;-67
2022/12/26 07:09:13;;;;;;;;;;;;;;;2.41;100.00;96944.09;5019859;28;19917;-67
2022/12/26 07:11:39;;;;;;;;;;;;;;;2.48;100.00;96939.06;5025356;28;20437;-67
2022/12/26 07:14:05;;;;;;;;;;;;;;;2.68;100.00;96945.84;5019806;28;19961;-67
2022/12/26 07:16:32;;;;;;;;;;;;;;;2.81;100.00;96953.09;5023361;28;19959;-66
2022/12/26 07:18:58;;;;;;;;;;;;;;;2.87;100.00;96948.38;5024511;28;20020;-66
2022/12/26 07:21:23;;;;;;;;;;;;;;;2.77;100.00;96946.69;5001728;28;20032;-67
2022/12/26 07:23:49;;;;;;;;;;;;;;;2.95;100.00;96950.28;5025071;28;19928;-67
2022/12/26 07:26:14;;;;;;;;;;;;;;;2.92;100.00;96945.53;5019312;28;19963;-67
2022/12/26 07:28:40;;;;;;;;;;;;;;;3.07;100.00;96938.91;5025270;28;19921;-67
2022/12/26 07:31:05;;;;;;;;;;;;;;;2.95;100.00;96927.88;5019766;28;19956;-66
2022/12/26 07:33:31;;;;;;;;;;;;;;;3.02;100.00;96925.50;5024424;28;19924;-67
2022/12/26 07:36:03;;;;;;;;;;;;;;;3.09;100.00;96925.06;5023667;28;20433;-68
2022/12/26 07:38:28;;;;;;;;;;;;;;;3.01;100.00;96932.03;5021899;28;19921;-67
2022/12/26 07:40:54;;;;;;;;;;;;;;;3.11;100.00;96933.66;5024841;28;19917;-67
2022/12/26 07:43:20;;;;;;;;;;;;;;;3.13;100.00;96934.16;5019197;28;19929;-68
2022/12/26 07:45:45;;;;;;;;;;;;;;;2.97;100.00;96931.88;5023135;28;20008;-69
2022/12/26 07:48:10;;;;;;;;;;;;;;;3.06;100.00;96929.19;5019631;28;19917;-66
2022/12/26 07:50:36;;;;;;;;;;;;;;;3.22;100.00;96929.56;5023809;28;20355;-66
2022/12/26 07:53:01;;;;;;;;;;;;;;;3.37;100.00;96926.44;5023660;28;19924;-66
2022/12/26 07:55:26;;;;;;;;;;;;;;;3.80;100.00;96923.03;5018210;28;19927;-65
2022/12/26 07:57:51;;;;;;;;;;;;;;;4.14;100.00;96918.75;5024705;28;19968;-66
2022/12/26 08:00:20;;;;;;;;;;;;;;;4.38;100.00;96914.75;5018660;28;20297;-66
2022/12/26 08:02:47;;;;;;;;;;;;;;;4.57;100.00;96923.34;5023651;28;19925;-66
2022/12/26 08:05:12;;;;;;;;;;;;;;;4.67;100.00;96929.53;5019083;28;20389;-66
2022/12/26 08:07:37;;;;;;;;;;;;;;;4.89;100.00;96923.88;5025826;28;19918;-68
2022/12/26 08:10:03;;;;;;;;;;;;;;;4.90;100.00;96924.72;5023811;28;19917;-64
2022/12/26 08:12:30;;;;;;;;;;;;;;;5.19;100.00;96936.75;5022047;28;19956;-67
2022/12/26 08:14:56;;;;;;;;;;;;;;;5.66;100.00;96929.31;5024356;28;19984;-67
2022/12/26 08:17:21;;;;;;;;;;;;;;;5.94;100.00;96932.34;5018637;28;19921;-66
2022/12/26 08:19:46;;;;;;;;;;;;;;;6.11;100.00;96936.88;5024180;28;19921;-68
2022/12/26 08:22:11;;;;;;;;;;;;;;;6.36;100.00;96938.94;5019020;28;19921;-68
2022/12/26 08:24:37;;;;;;;;;;;;;;;6.27;100.00;96926.19;5024489;28;20016;-67
2022/12/26 08:27:03;;;;;;;;;;;;;;;6.50;100.00;96932.06;5021754;28;19917;-66
2022/12/26 08:29:28;;;;;;;;;;;;;;;6.67;100.00;96933.03;5023596;28;19917;-67
2022/12/26 08:31:54;;;;;;;;;;;;;;;6.70;100.00;96925.00;5023810;28;19975;-67
2022/12/26 08:34:19;;;;;;;;;;;;;;;7.05;100.00;96937.44;5023380;28;20405;-67
2022/12/26 08:36:44;;;;;;;;;;;;;;;7.11;100.00;96933.38;5023119;28;20277;-67
2022/12/26 08:39:09;;;;;;;;;;;;;;;7.06;100.00;96937.13;5018888;28;19921;-69
2022/12/26 08:41:35;;;;;;;;;;;;;;;7.20;100.00;96947.69;5023560;28;19962;-67
2022/12/26 08:44:00;;;;;;;;;;;;;;;7.74;100.00;96948.63;5023073;28;19933;-67
2022/12/26 08:46:25;;;;;;;;;;;;;;;7.87;100.00;96943.94;5018963;28;20354;-67
2022/12/26 08:48:50;;;;;;;;;;;;;;;8.45;100.00;96941.81;5023831;28;19924;-68
2022/12/26 08:51:20;;;;;;;;;;;;;;;8.58;100.00;96937.88;5018195;28;19921;-67
2022/12/26 08:53:48;;;;;;;;;;;;;;;8.99;100.00;96938.59;5022687;28;19917;-67
2022/12/26 08:56:15;;;;;;;;;;;;;;;9.43;100.00;96956.88;5019783;28;19928;-68
2022/12/26 08:58:40;;;;;;;;;;;;;;;10.19;97.43;96950.41;5025252;28;19917;-68
2022/12/26 09:01:07;;;;;;;;;;;;;;;10.32;94.40;96958.19;5018748;28;19921;-68
2022/12/26 09:03:32;;;;;;;;;;;;;;;10.12;94.41;96949.13;5022079;28;19931;-73
2022/12/26 09:05:59;;;;;;;;;;;;;;;9.88;94.79;96933.72;5021854;28;19921;-70
2022/12/26 09:08:24;;;;;;;;;;;;;;;9.70;97.45;96941.50;5017091;28;19928;-70
2022/12/26 09:10:50;;;;;;;;;;;;;;;10.29;96.55;96933.44;5003740;28;19917;-70
2022/12/26 09:13:15;;;;;;;;;;;;;;;10.71;94.27;96933.56;5017824;28;19971;-69
2022/12/26 09:15:40;;;;;;;;;;;;;;;10.17;96.93;96939.03;5021818;28;20285;-70
2022/12/26 09:18:06;;;;;;;;;;;;;;;10.81;94.15;96936.84;5018683;28;19925;-70
2022/12/26 09:20:32;;;;;;;;;;;;;;;9.77;97.28;96929.94;5022077;28;19924;-70
2022/12/26 09:22:57;;;;;;;;;;;;;;;10.46;96.18;96945.94;5022200;28;20301;-70
2022/12/26 09:25:23;;;;;;;;;;;;;;;10.41;98.73;96944.28;5017609;28;19968;-70
2022/12/26 09:27:49;;;;;;;;;;;;;;;10.05;97.89;96943.50;5022350;28;19925;-70
2022/12/26 09:30:15;;;;;;;;;;;;;;;10.98;95.24;96960.25;5017937;28;20294;-70
2022/12/26 09:32:40;;;;;;;;;;;;;;;11.47;94.17;96962.34;5022516;28;20008;-70
2022/12/26 09:35:05;;;;;;;;;;;;;;;11.59;89.91;96966.81;5016882;28;19956;-70
2022/12/26 09:37:30;;;;;;;;;;;;;;;11.74;89.17;96970.59;5023484;28;20453;-69
2022/12/26 09:39:56;;;;;;;;;;;;;;;11.25;91.01;96977.59;5022244;28;20012;-69
2022/12/26 09:42:27;;;;;;;;;;;;;;;11.34;87.76;96974.63;5017402;28;19933;-69
2022/12/26 09:45:11;;;;;;;;;;;;;;;11.08;90.19;96974.16;5022372;28;19924;-69
2022/12/26 09:47:57;;;;;;;;;;;;;;;10.78;93.77;96975.94;5021424;28;19956;-70
2022/12/26 09:50:31;;;;;;;;;;;;;;;10.57;94.61;96979.03;5007048;28;20468;-70
2022/12/26 09:52:59;;;;;;;;;;;;;;;10.54;98.22;96977.81;5022495;28;20374;-69
2022/12/26 09:55:43;;;;;;;;;;;;;;;10.28;98.41;96983.84;5016047;28;19928;-69
2022/12/26 09:58:27;;;;;;;;;;;;;;;9.62;100.00;96978.06;5018249;28;19921;-69
2022/12/26 10:01:06;;;;;;;;;;;;;;;8.85;100.00;96964.75;5025259;28;19923;-69
2022/12/26 10:03:36;;;;;;;;;;;;;;;8.62;100.00;96965.28;5006508;28;20303;-69
2022/12/26 10:06:06;;;;;;;;;;;;;;;8.28;100.00;96956.47;5019727;28;20331;-68
2022/12/26 10:08:34;;;;;;;;;;;;;;;8.32;100.00;96959.31;5021490;28;19921;-68
2022/12/26 10:11:01;;;;;;;;;;;;;;;8.15;100.00;96988.47;5022301;28;19920;-69
2022/12/26 10:13:40;;;;;;;;;;;;;;;8.23;100.00;96973.91;5005821;28;20031;-69
2022/12/26 10:16:08;;;;;;;;;;;;;;;8.24;100.00;96958.31;4995821;28;19945;-69
2022/12/26 10:18:36;;;;;;;;;;;;;;;8.35;100.00;96962.16;5002736;28;19934;-68
2022/12/26 10:21:04;;;;;;;;;;;;;;;8.20;100.00;96960.94;5005351;28;19961;-69
2022/12/26 10:23:38;;;;;;;;;;;;;;;8.22;100.00;96961.38;5005645;28;20009;-69
2022/12/26 10:26:13;;;;;;;;;;;;;;;8.28;100.00;96958.44;5001557;28;19918;-68
2022/12/26 10:28:41;;;;;;;;;;;;;;;8.30;100.00;96962.41;5005555;28;19917;-69
2022/12/26 10:31:25;;;;;;;;;;;;;;;8.09;100.00;96986.31;5000581;28;19922;-68
2022/12/26 10:34:09;;;;;;;;;;;;;;;8.14;100.00;96986.88;5005702;28;19917;-69
2022/12/26 10:36:39;;;;;;;;;;;;;;;8.03;100.00;96989.28;5004193;28;20366;-68
2022/12/26 10:39:10;;;;;;;;;;;;;;;7.98;100.00;96994.19;5001395;28;19928;-68
2022/12/26 10:41:45;;;;;;;;;;;;;;;8.04;100.00;97001.78;5005487;28;19918;-68
2022/12/26 10:44:11;;;;;;;;;;;;;;;8.25;100.00;96992.66;4999623;28;19973;-69
2022/12/26 10:46:49;;;;;;;;;;;;;;;8.28;100.00;96996.63;5004477;28;19922;-69
2022/12/26 10:49:17;;;;;;;;;;;;;;;8.38;100.00;96990.69;5018745;28;20393;-70
2022/12/26 10:51:43;;;;;;;;;;;;;;;8.25;100.00;96998.13;5016288;28;19918;-71
2022/12/26 10:54:13;;;;;;;;;;;;;;;8.23;100.00;97000.41;5000801;28;19963;-69
2022/12/26 10:56:38;;;;;;;;;;;;;;;8.35;100.00;96997.63;5005064;28;20604;-71
2022/12/26 10:59:04;;;;;;;;;;;;;;;8.40;100.00;96999.34;5012730;28;19925;-71
2022/12/26 11:01:33;;;;;;;;;;;;;;;8.25;100.00;97000.84;5025053;28;19921;-71
2022/12/26 11:04:02;;;;;;;;;;;;;;;8.19;100.00;97010.41;5024796;28;19921;-69
2022/12/26 11:06:32;;;;;;;;;;;;;;;8.26;100.00;97015.28;5020429;28;19917;-70
2022/12/26 11:08:58;;;;;;;;;;;;;;;8.31;100.00;97012.31;5028896;28;19939;-71
2022/12/26 11:11:44;;;;;;;;;;;;;;;8.34;100.00;97025.28;5026959;28;20543;-70
2022/12/26 11:14:30;;;;;;;;;;;;;;;8.41;100.00;97023.56;5018753;28;19921;-70
2022/12/26 11:17:00;;;;;;;;;;;;;;;8.26;100.00;97028.94;5013565;28;20024;-70
2022/12/26 11:19:43;;;;;;;;;;;;;;;8.22;100.00;97034.28;5019546;28;20453;-70
2022/12/26 11:22:25;;;;;;;;;;;;;;;8.20;100.00;97044.75;5019404;28;19921;-70
2022/12/26 11:25:09;;;;;;;;;;;;;;;8.20;100.00;97050.19;5024163;28;19921;-70
2022/12/26 11:27:38;;;;;;;;;;;;;;;8.23;100.00;97044.06;5024564;28;19959;-70
2022/12/26 11:30:15;;;;;;;;;;;;;;;8.22;100.00;97042.47;5024269;28;19936;-69
2022/12/26 11:32:42;;;;;;;;;;;;;;;8.32;100.00;97049.38;5025162;28;20434;-70
2022/12/26 11:35:36;;;;;;;;;;;;;;;8.33;100.00;97050.97;5019384;28;20004;-71
2022/12/26 11:38:02;;;;;;;;;;;;;;;8.23;100.00;97046.78;5023085;28;20563;-71
2022/12/26 11:40:31;;;;;;;;;;;;;;;8.26;100.00;97050.75;5021866;28;19924;-69
2022/12/26 11:42:58;;;;;;;;;;;;;;;8.26;100.00;97058.94;5024760;28;19929;-69
2022/12/26 11:45:26;;;;;;;;;;;;;;;8.19;100.00;97056.78;5019628;28;19927;-69
2022/12/26 11:47:53;;;;;;;;;;;;;;;8.12;100.00;97049.19;5024108;28;19921;-69
2022/12/26 11:50:20;;;;;;;;;;;;;;;8.03;100.00;97037.56;5017740;28;20004;-69
2022/12/26 11:53:03;;;;;;;;;;;;;;;7.96;100.00;97035.44;5003459;28;19921;-69
2022/12/26 11:55:32;;;;;;;;;;;;;;;7.98;100.00;97038.63;4994193;28;20778;-69
2022/12/26 11:58:16;;;;;;;;;;;;;;;7.98;100.00;97033.16;4987685;28;19968;-69
2022/12/26 12:01:01;;;;;;;;;;;;;;;8.02;100.00;97044.97;5003649;28;19941;-69
2022/12/26 12:03:26;;;;;;;;;;;;;;;8.01;100.00;97037.13;4999087;28;19988;-70
2022/12/26 12:06:21;;;;;;;;;;;;;;;7.90;100.00;97033.25;5004063;28;19925;-70
2022/12/26 12:09:05;;;;;;;;;;;;;;;7.77;100.00;97025.06;5001163;28;20006;-70
2022/12/26 12:11:35;;;;;;;;;;;;;;;7.71;100.00;97045.53;5004266;28;19921;-70
2022/12/26 12:14:06;;;;;;;;;;;;;;;7.69;100.00;97050.53;5004789;28;19917;-70
2022/12/26 12:16:50;;;;;;;;;;;;;;;7.84;100.00;97049.84;5003139;28;19917;-70
2022/12/26 12:19:25;;;;;;;;;;;;;;;8.03;100.00;97054.75;4997993;28;19940;-70
2022/12/26 12:22:05;;;;;;;;;;;;;;;7.89;100.00;97053.50;5004355;28;20294;-69
2022/12/26 12:24:46;;;;;;;;;;;;;;;7.68;100.00;97050.88;4989969;28;19922;-69
2022/12/26 12:27:20;;;;;;;;;;;;;;;7.78;100.00;97042.25;4978691;28;19918;-69
2022/12/26 12:29:55;;;;;;;;;;;;;;;8.03;100.00;97052.03;4984406;28;19964;-69
2022/12/26 12:32:30;;;;;;;;;;;;;;;8.09;100.00;97047.13;4982519;28;19925;-70
2022/12/26 12:35:02;;;;;;;;;;;;;;;8.10;100.00;97042.47;4990996;28;19918;-70
2022/12/26 12:37:57;;;;;;;;;;;;;;;7.86;100.00;97049.50;4981526;28;19928;-71
2022/12/26 12:40:31;;;;;;;;;;;;;;;7.65;100.00;97055.88;4961872;28;19965;-71
2022/12/26 12:43:05;;;;;;;;;;;;;;;7.59;100.00;97061.88;4983384;28;19922;-72
2022/12/26 12:45:32;;;;;;;;;;;;;;;7.57;100.00;97070.38;4983021;28;19956;-72
2022/12/26 12:48:03;;;;;;;;;;;;;;;7.62;100.00;97078.34;4984240;28;20068;-72
2022/12/26 12:50:32;;;;;;;;;;;;;;;7.63;100.00;97070.94;4983069;28;20294;-69
2022/12/26 12:53:12;;;;;;;;;;;;;;;7.57;100.00;97064.94;4997346;28;19926;-70
2022/12/26 12:55:54;;;;;;;;;;;;;;;7.53;100.00;97065.97;5002328;28;19926;-72
2022/12/26 12:58:38;;;;;;;;;;;;;;;7.48;100.00;97058.78;4984753;28;19918;-70
2022/12/26 13:01:06;;;;;;;;;;;;;;;7.52;100.00;97070.59;5001121;28;20293;-70
2022/12/26 13:03:32;;;;;;;;;;;;;;;7.49;100.00;97065.03;5006458;28;19926;-69
2022/12/26 13:06:03;;;;;;;;;;;;;;;7.49;100.00;97065.84;5009061;28;19928;-70
2022/12/26 13:08:45;;;;;;;;;;;;;;;7.50;100.00;97070.13;5005721;28;19921;-71
2022/12/26 13:11:13;;;;;;;;;;;;;;;7.48;100.00;97072.41;4998262;28;20379;-70
2022/12/26 13:13:46;;;;;;;;;;;;;;;7.51;100.00;97060.03;5002532;28;20298;-70
2022/12/26 13:16:14;;;;;;;;;;;;;;;7.55;100.00;97060.97;4995273;28;19921;-71
2022/12/26 13:18:43;;;;;;;;;;;;;;;7.55;100.00;97064.47;5002708;28;20282;-71
2022/12/26 13:21:10;;;;;;;;;;;;;;;7.59;100.00;97072.78;4999654;28;19961;-71
2022/12/26 13:26:26;;;;;;;;;;;;;;;7.96;100.00;97079.06;4997188;28;20479;-72
2022/12/26 13:29:10;;;;;;;;;;;;;;;8.08;100.00;97083.72;5001323;28;20012;-71
2022/12/26 13:31:36;;;;;;;;;;;;;;;8.13;100.00;97091.69;5018028;28;20559;-71
2022/12/26 13:34:02;;;;;;;;;;;;;;;8.12;100.00;97087.38;5002393;28;19928;-71
2022/12/26 13:36:39;;;;;;;;;;;;;;;8.14;100.00;97087.84;4999302;28;20343;-71
2022/12/26 13:39:11;;;;;;;;;;;;;;;8.10;100.00;97083.38;4995887;28;19917;-71
2022/12/26 13:44:20;;;;;;;;;;;;;;;8.33;100.00;97075.53;4997794;28;19921;-71
2022/12/26 13:46:45;;;;;;;;;;;;;;;8.50;100.00;97072.59;5002050;28;19918;-71
2022/12/26 13:49:28;;;;;;;;;;;;;;;8.56;100.00;97071.22;4998031;28;20008;-72
2022/12/26 13:51:57;;;;;;;;;;;;;;;8.66;100.00;97074.59;5002365;28;20446;-71
2022/12/26 13:54:23;;;;;;;;;;;;;;;8.70;100.00;97075.53;4997748;28;20441;-71
2022/12/26 13:56:52;;;;;;;;;;;;;;;8.85;100.00;97069.31;5002212;28;19955;-71
2022/12/26 13:59:26;;;;;;;;;;;;;;;8.82;100.00;97077.41;4997122;28;20460;-71
2022/12/26 14:01:51;;;;;;;;;;;;;;;8.70;100.00;97081.78;5002045;28;20020;-72
2022/12/26 14:04:37;;;;;;;;;;;;;;;8.76;100.00;97069.47;4997290;28;20593;-73
2022/12/26 14:07:20;;;;;;;;;;;;;;;8.75;100.00;97075.25;4998150;28;19971;-74
2022/12/26 14:10:04;;;;;;;;;;;;;;;8.68;100.00;97070.41;5002501;28;19925;-68
2022/12/26 14:12:32;;;;;;;;;;;;;;;8.58;100.00;97079.06;5001963;28;20390;-70
2022/12/26 14:15:16;;;;;;;;;;;;;;;8.60;100.00;97080.31;5002293;28;20393;-68
2022/12/26 14:17:54;;;;;;;;;;;;;;;8.51;100.00;97082.38;5001134;28;19948;-67
2022/12/26 14:20:25;;;;;;;;;;;;;;;8.50;100.00;97082.72;4997232;28;19922;-67
2022/12/26 14:22:59;;;;;;;;;;;;;;;8.32;100.00;97082.94;5014906;28;19932;-69
2022/12/26 14:25:28;;;;;;;;;;;;;;;8.35;100.00;97087.69;4978401;28;19929;-65
2022/12/26 14:28:01;;;;;;;;;;;;;;;8.24;100.00;97078.38;4982122;28;19918;-65
2022/12/26 14:30:47;;;;;;;;;;;;;;;8.24;100.00;97070.97;4979390;28;19925;-66
2022/12/26 14:33:29;;;;;;;;;;;;;;;8.31;100.00;97070.41;4977134;28;19953;-66
2022/12/26 14:35:58;;;;;;;;;;;;;;;8.41;100.00;97075.41;4980677;28;19953;-67
2022/12/26 14:38:23;;;;;;;;;;;;;;;8.43;100.00;97072.38;4976792;28;20460;-67
2022/12/26 14:43:09;;;;;;;;;;;;;;;8.45;100.00;97072.84;4981807;28;19965;-67
2022/12/26 14:43:54;;;;;;;;;;;;;;;8.44;100.00;97075.91;4981493;28;20004;-67
2022/12/26 14:46:31;;;;;;;;;;;;;;;8.41;100.00;97080.88;4975868;28;20013;-67
2022/12/26 14:48:58;;;;;;;;;;;;;;;8.28;100.00;97079.28;4982135;28;19922;-67
2022/12/26 14:51:27;;;;;;;;;;;;;;;8.20;100.00;97081.00;4976921;28;19984;-66
2022/12/26 14:54:15;;;;;;;;;;;;;;;8.19;100.00;97089.53;5001394;28;20386;-65
2022/12/26 14:56:41;;;;;;;;;;;;;;;8.03;100.00;97094.84;5002597;28;19967;-66
2022/12/26 14:59:19;;;;;;;;;;;;;;;8.11;100.00;97101.34;5016763;28;19925;-66
2022/12/26 15:01:48;;;;;;;;;;;;;;;8.03;100.00;97108.50;5020687;28;19921;-66
2022/12/26 15:04:13;;;;;;;;;;;;;;;7.97;100.00;97098.97;5011648;28;19921;-66
2022/12/26 15:06:57;;;;;;;;;;;;;;;8.04;100.00;97091.00;5022368;28;19924;-66